sensor_id;sensor_type;location;lat;lon;timestamp;temperature;humidity
61591;DHT22;57639;52.410;-1.966;2023-02-02T00:01:00;15.00;45.40
61591;DHT22;57639;52.410;-1.966;2023-02-02T00:04:08;15.10;45.40
61591;DHT22;57639;52.410;-1.966;2023-02-02T00:07:17;15.00;45.40
61591;DHT22;57639;52.410;-1.966;2023-02-02T00:10:23;15.10;45.50
61591;DHT22;57639;52.410;-1.966;2023-02-02T00:13:29;15.00;45.50
61591;DHT22;57639;52.410;-1.966;2023-02-02T00:16:42;15.00;45.40
61591;DHT22;57639;52.410;-1.966;2023-02-02T00:19:48;15.00;45.50
61591;DHT22;57639;52.410;-1.966;2023-02-02T00:22:54;15.00;45.50
61591;DHT22;57639;52.410;-1.966;2023-02-02T00:26:00;15.00;45.50
61591;DHT22;57639;52.410;-1.966;2023-02-02T00:29:10;15.00;45.50
61591;DHT22;57639;52.410;-1.966;2023-02-02T00:32:20;15.00;45.50
61591;DHT22;57639;52.410;-1.966;2023-02-02T00:35:27;15.00;45.50
61591;DHT22;57639;52.410;-1.966;2023-02-02T00:38:33;15.00;45.50
61591;DHT22;57639;52.410;-1.966;2023-02-02T00:41:39;15.00;45.50
61591;DHT22;57639;52.410;-1.966;2023-02-02T00:44:45;15.00;45.50
61591;DHT22;57639;52.410;-1.966;2023-02-02T00:48:10;14.90;45.50
61591;DHT22;57639;52.410;-1.966;2023-02-02T00:51:16;14.90;45.60
61591;DHT22;57639;52.410;-1.966;2023-02-02T00:54:22;15.00;45.50
61591;DHT22;57639;52.410;-1.966;2023-02-02T00:57:28;14.90;45.50
61591;DHT22;57639;52.410;-1.966;2023-02-02T01:00:34;14.90;45.50
61591;DHT22;57639;52.410;-1.966;2023-02-02T01:03:43;14.90;45.60
61591;DHT22;57639;52.410;-1.966;2023-02-02T01:06:49;14.90;45.60
61591;DHT22;57639;52.410;-1.966;2023-02-02T01:09:55;14.90;45.60
61591;DHT22;57639;52.410;-1.966;2023-02-02T01:13:02;14.90;45.70
61591;DHT22;57639;52.410;-1.966;2023-02-02T01:16:09;14.90;45.70
61591;DHT22;57639;52.410;-1.966;2023-02-02T01:19:21;14.90;45.70
61591;DHT22;57639;52.410;-1.966;2023-02-02T01:22:27;14.80;45.70
61591;DHT22;57639;52.410;-1.966;2023-02-02T01:25:33;14.80;45.70
61591;DHT22;57639;52.410;-1.966;2023-02-02T01:28:40;14.80;45.70
61591;DHT22;57639;52.410;-1.966;2023-02-02T01:31:49;14.90;45.70
61591;DHT22;57639;52.410;-1.966;2023-02-02T01:34:58;14.90;45.70
61591;DHT22;57639;52.410;-1.966;2023-02-02T01:38:04;14.90;45.70
61591;DHT22;57639;52.410;-1.966;2023-02-02T01:41:15;14.80;45.70
61591;DHT22;57639;52.410;-1.966;2023-02-02T01:45:01;14.80;45.70
61591;DHT22;57639;52.410;-1.966;2023-02-02T01:48:12;14.80;45.70
61591;DHT22;57639;52.410;-1.966;2023-02-02T01:51:26;14.80;45.80
61591;DHT22;57639;52.410;-1.966;2023-02-02T01:54:36;14.80;45.80
61591;DHT22;57639;52.410;-1.966;2023-02-02T01:57:50;14.80;45.70
61591;DHT22;57639;52.410;-1.966;2023-02-02T02:00:59;14.80;45.70
61591;DHT22;57639;52.410;-1.966;2023-02-02T02:04:05;14.70;45.70
61591;DHT22;57639;52.410;-1.966;2023-02-02T02:07:16;14.80;45.80
61591;DHT22;57639;52.410;-1.966;2023-02-02T02:10:23;14.70;45.80
61591;DHT22;57639;52.410;-1.966;2023-02-02T02:13:31;14.70;45.80
61591;DHT22;57639;52.410;-1.966;2023-02-02T02:17:20;14.80;45.80
61591;DHT22;57639;52.410;-1.966;2023-02-02T02:20:59;14.70;45.70
61591;DHT22;57639;52.410;-1.966;2023-02-02T02:29:00;14.70;45.80
61591;DHT22;57639;52.410;-1.966;2023-02-02T02:32:26;14.70;45.70
61591;DHT22;57639;52.410;-1.966;2023-02-02T02:35:41;14.60;45.80
61591;DHT22;57639;52.410;-1.966;2023-02-02T02:38:51;14.60;45.90
61591;DHT22;57639;52.410;-1.966;2023-02-02T02:42:03;14.60;45.90
61591;DHT22;57639;52.410;-1.966;2023-02-02T02:45:10;14.60;45.80
61591;DHT22;57639;52.410;-1.966;2023-02-02T02:48:20;14.60;45.80
61591;DHT22;57639;52.410;-1.966;2023-02-02T02:51:44;14.60;45.80
61591;DHT22;57639;52.410;-1.966;2023-02-02T02:54:53;14.60;45.80
61591;DHT22;57639;52.410;-1.966;2023-02-02T02:58:06;14.60;45.80
61591;DHT22;57639;52.410;-1.966;2023-02-02T03:01:19;14.60;45.80
61591;DHT22;57639;52.410;-1.966;2023-02-02T03:04:34;14.60;45.80
61591;DHT22;57639;52.410;-1.966;2023-02-02T03:07:47;14.60;45.80
61591;DHT22;57639;52.410;-1.966;2023-02-02T03:10:55;14.60;45.90
61591;DHT22;57639;52.410;-1.966;2023-02-02T03:14:02;14.60;45.80
61591;DHT22;57639;52.410;-1.966;2023-02-02T03:17:09;14.60;45.90
61591;DHT22;57639;52.410;-1.966;2023-02-02T03:20:19;14.60;45.90
61591;DHT22;57639;52.410;-1.966;2023-02-02T03:23:23;14.60;45.90
61591;DHT22;57639;52.410;-1.966;2023-02-02T03:26:29;14.60;45.90
61591;DHT22;57639;52.410;-1.966;2023-02-02T03:29:33;14.60;45.90
61591;DHT22;57639;52.410;-1.966;2023-02-02T03:32:39;14.60;45.90
61591;DHT22;57639;52.410;-1.966;2023-02-02T03:35:47;14.60;45.90
61591;DHT22;57639;52.410;-1.966;2023-02-02T03:38:53;14.50;46.00
61591;DHT22;57639;52.410;-1.966;2023-02-02T03:41:57;14.50;45.90
61591;DHT22;57639;52.410;-1.966;2023-02-02T03:45:10;14.50;45.90
61591;DHT22;57639;52.410;-1.966;2023-02-02T03:48:17;14.50;45.90
61591;DHT22;57639;52.410;-1.966;2023-02-02T03:51:23;14.50;46.00
61591;DHT22;57639;52.410;-1.966;2023-02-02T03:54:29;14.50;45.90
61591;DHT22;57639;52.410;-1.966;2023-02-02T03:57:33;14.50;45.90
61591;DHT22;57639;52.410;-1.966;2023-02-02T04:00:40;14.40;46.00
61591;DHT22;57639;52.410;-1.966;2023-02-02T04:03:44;14.50;46.00
61591;DHT22;57639;52.410;-1.966;2023-02-02T04:06:53;14.50;45.90
61591;DHT22;57639;52.410;-1.966;2023-02-02T04:09:58;14.50;46.00
61591;DHT22;57639;52.410;-1.966;2023-02-02T04:13:04;14.40;46.00
61591;DHT22;57639;52.410;-1.966;2023-02-02T04:16:08;14.40;46.00
61591;DHT22;57639;52.410;-1.966;2023-02-02T04:19:15;14.50;46.00
61591;DHT22;57639;52.410;-1.966;2023-02-02T04:22:24;14.40;46.00
61591;DHT22;57639;52.410;-1.966;2023-02-02T04:25:30;14.50;46.00
61591;DHT22;57639;52.410;-1.966;2023-02-02T04:28:34;14.40;46.00
61591;DHT22;57639;52.410;-1.966;2023-02-02T04:31:44;14.40;46.00
61591;DHT22;57639;52.410;-1.966;2023-02-02T04:34:48;14.40;46.00
61591;DHT22;57639;52.410;-1.966;2023-02-02T04:37:57;14.40;46.00
61591;DHT22;57639;52.410;-1.966;2023-02-02T04:41:05;14.40;46.10
61591;DHT22;57639;52.410;-1.966;2023-02-02T04:44:13;14.30;46.10
61591;DHT22;57639;52.410;-1.966;2023-02-02T04:47:17;14.30;46.20
61591;DHT22;57639;52.410;-1.966;2023-02-02T04:50:26;14.30;46.20
61591;DHT22;57639;52.410;-1.966;2023-02-02T04:53:33;14.30;46.10
61591;DHT22;57639;52.410;-1.966;2023-02-02T04:56:39;14.30;46.20
61591;DHT22;57639;52.410;-1.966;2023-02-02T04:59:44;14.30;46.10
61591;DHT22;57639;52.410;-1.966;2023-02-02T05:02:50;14.30;46.20
61591;DHT22;57639;52.410;-1.966;2023-02-02T05:06:02;14.30;46.20
61591;DHT22;57639;52.410;-1.966;2023-02-02T05:09:12;14.20;46.20
61591;DHT22;57639;52.410;-1.966;2023-02-02T05:12:18;14.30;46.20
61591;DHT22;57639;52.410;-1.966;2023-02-02T05:15:25;14.30;46.20
61591;DHT22;57639;52.410;-1.966;2023-02-02T05:18:29;14.30;46.20
61591;DHT22;57639;52.410;-1.966;2023-02-02T05:21:36;14.20;46.20
61591;DHT22;57639;52.410;-1.966;2023-02-02T05:24:42;14.20;46.30
61591;DHT22;57639;52.410;-1.966;2023-02-02T05:27:49;14.20;46.20
61591;DHT22;57639;52.410;-1.966;2023-02-02T05:30:55;14.20;46.30
61591;DHT22;57639;52.410;-1.966;2023-02-02T05:34:01;14.20;46.30
61591;DHT22;57639;52.410;-1.966;2023-02-02T05:37:06;14.20;46.30
61591;DHT22;57639;52.410;-1.966;2023-02-02T05:40:17;14.20;46.30
61591;DHT22;57639;52.410;-1.966;2023-02-02T05:43:23;14.20;46.30
61591;DHT22;57639;52.410;-1.966;2023-02-02T05:46:30;14.20;46.30
61591;DHT22;57639;52.410;-1.966;2023-02-02T05:49:34;14.10;46.30
61591;DHT22;57639;52.410;-1.966;2023-02-02T05:52:40;14.20;46.30
61591;DHT22;57639;52.410;-1.966;2023-02-02T05:55:50;14.20;46.40
61591;DHT22;57639;52.410;-1.966;2023-02-02T05:58:56;14.10;46.40
61591;DHT22;57639;52.410;-1.966;2023-02-02T06:02:02;14.10;46.40
61591;DHT22;57639;52.410;-1.966;2023-02-02T06:05:08;14.10;46.50
61591;DHT22;57639;52.410;-1.966;2023-02-02T06:08:12;14.10;46.50
61591;DHT22;57639;52.410;-1.966;2023-02-02T06:11:21;14.10;46.50
61591;DHT22;57639;52.410;-1.966;2023-02-02T06:14:25;14.10;46.50
61591;DHT22;57639;52.410;-1.966;2023-02-02T06:17:31;14.10;46.50
61591;DHT22;57639;52.410;-1.966;2023-02-02T06:20:37;14.10;46.50
61591;DHT22;57639;52.410;-1.966;2023-02-02T06:23:41;14.10;46.60
61591;DHT22;57639;52.410;-1.966;2023-02-02T06:26:50;14.10;46.50
61591;DHT22;57639;52.410;-1.966;2023-02-02T06:29:54;14.00;46.60
61591;DHT22;57639;52.410;-1.966;2023-02-02T06:33:00;14.10;46.60
61591;DHT22;57639;52.410;-1.966;2023-02-02T06:36:07;14.00;46.60
61591;DHT22;57639;52.410;-1.966;2023-02-02T06:39:11;14.10;46.60
61591;DHT22;57639;52.410;-1.966;2023-02-02T06:42:20;14.00;46.60
61591;DHT22;57639;52.410;-1.966;2023-02-02T06:45:29;14.10;46.60
61591;DHT22;57639;52.410;-1.966;2023-02-02T06:48:40;14.00;46.60
61591;DHT22;57639;52.410;-1.966;2023-02-02T06:51:45;14.00;46.60
61591;DHT22;57639;52.410;-1.966;2023-02-02T06:54:53;14.00;46.60
61591;DHT22;57639;52.410;-1.966;2023-02-02T06:58:00;13.90;46.70
61591;DHT22;57639;52.410;-1.966;2023-02-02T07:01:08;14.00;46.70
61591;DHT22;57639;52.410;-1.966;2023-02-02T07:04:15;14.00;46.70
61591;DHT22;57639;52.410;-1.966;2023-02-02T07:07:21;14.00;46.70
61591;DHT22;57639;52.410;-1.966;2023-02-02T07:10:28;14.00;46.70
61591;DHT22;57639;52.410;-1.966;2023-02-02T07:13:34;14.00;46.70
61591;DHT22;57639;52.410;-1.966;2023-02-02T07:16:40;14.10;46.60
61591;DHT22;57639;52.410;-1.966;2023-02-02T07:19:47;14.10;46.50
61591;DHT22;57639;52.410;-1.966;2023-02-02T07:22:53;14.30;46.30
61591;DHT22;57639;52.410;-1.966;2023-02-02T07:26:01;14.50;46.20
61591;DHT22;57639;52.410;-1.966;2023-02-02T07:29:13;14.80;45.90
61591;DHT22;57639;52.410;-1.966;2023-02-02T07:32:17;15.00;45.50
61591;DHT22;57639;52.410;-1.966;2023-02-02T07:35:23;15.30;45.20
61591;DHT22;57639;52.410;-1.966;2023-02-02T07:38:30;15.50;44.80
61591;DHT22;57639;52.410;-1.966;2023-02-02T07:41:34;15.70;44.50
61591;DHT22;57639;52.410;-1.966;2023-02-02T07:44:45;16.00;44.20
61591;DHT22;57639;52.410;-1.966;2023-02-02T07:47:55;16.10;43.90
61591;DHT22;57639;52.410;-1.966;2023-02-02T07:51:03;16.30;43.60
61591;DHT22;57639;52.410;-1.966;2023-02-02T07:54:09;16.50;43.40
61591;DHT22;57639;52.410;-1.966;2023-02-02T07:57:16;16.60;43.20
61591;DHT22;57639;52.410;-1.966;2023-02-02T08:00:25;16.70;43.10
61591;DHT22;57639;52.410;-1.966;2023-02-02T08:03:32;16.80;42.90
61591;DHT22;57639;52.410;-1.966;2023-02-02T08:06:39;17.00;42.70
61591;DHT22;57639;52.410;-1.966;2023-02-02T08:09:45;17.10;42.60
61591;DHT22;57639;52.410;-1.966;2023-02-02T08:12:52;17.10;42.50
61591;DHT22;57639;52.410;-1.966;2023-02-02T08:16:00;17.10;42.40
61591;DHT22;57639;52.410;-1.966;2023-02-02T08:19:08;17.10;42.50
61591;DHT22;57639;52.410;-1.966;2023-02-02T08:22:12;17.10;42.50
61591;DHT22;57639;52.410;-1.966;2023-02-02T08:25:18;17.00;42.60
61591;DHT22;57639;52.410;-1.966;2023-02-02T08:28:24;17.00;42.60
61591;DHT22;57639;52.410;-1.966;2023-02-02T08:31:37;17.00;42.70
61591;DHT22;57639;52.410;-1.966;2023-02-02T08:34:41;16.90;42.80
61591;DHT22;57639;52.410;-1.966;2023-02-02T08:37:50;16.80;42.90
61591;DHT22;57639;52.410;-1.966;2023-02-02T08:41:03;16.80;43.00
61591;DHT22;57639;52.410;-1.966;2023-02-02T08:44:09;16.70;43.20
61591;DHT22;57639;52.410;-1.966;2023-02-02T08:47:19;16.60;43.30
61591;DHT22;57639;52.410;-1.966;2023-02-02T08:50:23;16.60;43.40
61591;DHT22;57639;52.410;-1.966;2023-02-02T08:53:29;16.60;43.50
61591;DHT22;57639;52.410;-1.966;2023-02-02T08:56:35;16.50;43.70
61591;DHT22;57639;52.410;-1.966;2023-02-02T08:59:41;16.40;43.80
61591;DHT22;57639;52.410;-1.966;2023-02-02T09:02:52;16.30;44.00
61591;DHT22;57639;52.410;-1.966;2023-02-02T09:05:55;16.20;44.10
61591;DHT22;57639;52.410;-1.966;2023-02-02T09:09:03;16.20;44.30
61591;DHT22;57639;52.410;-1.966;2023-02-02T09:12:07;16.10;44.40
61591;DHT22;57639;52.410;-1.966;2023-02-02T09:15:14;16.10;44.60
61591;DHT22;57639;52.410;-1.966;2023-02-02T09:18:23;16.00;44.80
61591;DHT22;57639;52.410;-1.966;2023-02-02T09:21:29;16.00;44.90
61591;DHT22;57639;52.410;-1.966;2023-02-02T09:24:38;15.80;45.10
61591;DHT22;57639;52.410;-1.966;2023-02-02T09:27:44;15.80;45.20
61591;DHT22;57639;52.410;-1.966;2023-02-02T09:30:50;15.80;45.10
61591;DHT22;57639;52.410;-1.966;2023-02-02T09:33:59;15.70;45.20
61591;DHT22;57639;52.410;-1.966;2023-02-02T09:37:08;15.70;45.30
61591;DHT22;57639;52.410;-1.966;2023-02-02T09:40:17;15.70;45.40
61591;DHT22;57639;52.410;-1.966;2023-02-02T09:43:36;15.60;45.50
61591;DHT22;57639;52.410;-1.966;2023-02-02T09:46:53;15.60;45.50
61591;DHT22;57639;52.410;-1.966;2023-02-02T09:50:14;15.60;45.60
61591;DHT22;57639;52.410;-1.966;2023-02-02T09:53:37;15.50;45.70
61591;DHT22;57639;52.410;-1.966;2023-02-02T09:56:45;15.50;45.80
61591;DHT22;57639;52.410;-1.966;2023-02-02T09:59:53;15.50;45.90
61591;DHT22;57639;52.410;-1.966;2023-02-02T10:03:03;15.40;46.00
61591;DHT22;57639;52.410;-1.966;2023-02-02T10:06:22;15.40;46.00
61591;DHT22;57639;52.410;-1.966;2023-02-02T10:09:35;15.40;46.10
61591;DHT22;57639;52.410;-1.966;2023-02-02T10:12:48;15.40;46.00
61591;DHT22;57639;52.410;-1.966;2023-02-02T10:16:05;15.40;45.90
61591;DHT22;57639;52.410;-1.966;2023-02-02T10:19:12;15.40;45.90
61591;DHT22;57639;52.410;-1.966;2023-02-02T10:22:32;15.30;46.00
61591;DHT22;57639;52.410;-1.966;2023-02-02T10:25:45;15.30;46.10
61591;DHT22;57639;52.410;-1.966;2023-02-02T10:29:04;15.30;46.10
61591;DHT22;57639;52.410;-1.966;2023-02-02T10:32:16;15.40;46.20
61591;DHT22;57639;52.410;-1.966;2023-02-02T10:35:37;15.30;46.10
61591;DHT22;57639;52.410;-1.966;2023-02-02T10:38:54;15.30;46.20
61591;DHT22;57639;52.410;-1.966;2023-02-02T10:42:11;15.30;46.30
61591;DHT22;57639;52.410;-1.966;2023-02-02T10:45:20;15.30;46.30
61591;DHT22;57639;52.410;-1.966;2023-02-02T10:48:28;15.20;46.40
61591;DHT22;57639;52.410;-1.966;2023-02-02T10:51:35;15.20;46.30
61591;DHT22;57639;52.410;-1.966;2023-02-02T10:54:50;15.20;46.40
61591;DHT22;57639;52.410;-1.966;2023-02-02T10:58:07;15.20;46.50
61591;DHT22;57639;52.410;-1.966;2023-02-02T11:01:15;15.20;46.30
61591;DHT22;57639;52.410;-1.966;2023-02-02T11:04:25;15.20;46.40
61591;DHT22;57639;52.410;-1.966;2023-02-02T11:07:45;15.10;46.40
61591;DHT22;57639;52.410;-1.966;2023-02-02T11:10:55;15.10;46.50
61591;DHT22;57639;52.410;-1.966;2023-02-02T11:14:14;15.10;46.50
61591;DHT22;57639;52.410;-1.966;2023-02-02T11:17:23;15.10;46.70
61591;DHT22;57639;52.410;-1.966;2023-02-02T11:20:32;15.10;46.60
61591;DHT22;57639;52.410;-1.966;2023-02-02T11:23:40;15.10;46.60
61591;DHT22;57639;52.410;-1.966;2023-02-02T11:26:50;15.10;46.80
61591;DHT22;57639;52.410;-1.966;2023-02-02T11:29:58;15.00;46.80
61591;DHT22;57639;52.410;-1.966;2023-02-02T11:33:19;15.10;46.70
61591;DHT22;57639;52.410;-1.966;2023-02-02T11:36:25;15.00;46.80
61591;DHT22;57639;52.410;-1.966;2023-02-02T11:39:31;15.00;46.90
61591;DHT22;57639;52.410;-1.966;2023-02-02T11:42:48;15.00;46.90
61591;DHT22;57639;52.410;-1.966;2023-02-02T11:45:54;15.00;46.90
61591;DHT22;57639;52.410;-1.966;2023-02-02T11:49:03;15.00;46.90
61591;DHT22;57639;52.410;-1.966;2023-02-02T11:52:15;15.00;46.90
61591;DHT22;57639;52.410;-1.966;2023-02-02T11:55:26;15.00;46.90
61591;DHT22;57639;52.410;-1.966;2023-02-02T11:58:43;15.00;47.00
61591;DHT22;57639;52.410;-1.966;2023-02-02T12:01:49;15.00;47.10
61591;DHT22;57639;52.410;-1.966;2023-02-02T12:05:13;15.00;47.10
61591;DHT22;57639;52.410;-1.966;2023-02-02T12:08:17;14.90;47.00
61591;DHT22;57639;52.410;-1.966;2023-02-02T12:11:35;15.00;46.90
61591;DHT22;57639;52.410;-1.966;2023-02-02T12:14:49;15.00;46.90
61591;DHT22;57639;52.410;-1.966;2023-02-02T12:18:06;15.10;46.90
61591;DHT22;57639;52.410;-1.966;2023-02-02T12:21:20;15.20;46.70
61591;DHT22;57639;52.410;-1.966;2023-02-02T12:24:32;15.40;46.60
61591;DHT22;57639;52.410;-1.966;2023-02-02T12:27:44;15.60;46.30
61591;DHT22;57639;52.410;-1.966;2023-02-02T12:31:01;15.80;45.90
61591;DHT22;57639;52.410;-1.966;2023-02-02T12:34:13;16.10;45.60
61591;DHT22;57639;52.410;-1.966;2023-02-02T12:37:31;16.30;45.30
61591;DHT22;57639;52.410;-1.966;2023-02-02T12:40:48;16.60;44.90
61591;DHT22;57639;52.410;-1.966;2023-02-02T12:43:59;16.70;44.60
61591;DHT22;57639;52.410;-1.966;2023-02-02T12:47:15;16.90;44.40
61591;DHT22;57639;52.410;-1.966;2023-02-02T12:50:27;17.10;44.20
61591;DHT22;57639;52.410;-1.966;2023-02-02T12:53:56;17.20;43.90
61591;DHT22;57639;52.410;-1.966;2023-02-02T12:57:13;17.40;43.70
61591;DHT22;57639;52.410;-1.966;2023-02-02T13:00:41;17.60;43.50
61591;DHT22;57639;52.410;-1.966;2023-02-02T13:04:12;17.60;43.30
61591;DHT22;57639;52.410;-1.966;2023-02-02T13:07:39;17.70;43.20
61591;DHT22;57639;52.410;-1.966;2023-02-02T13:10:52;17.70;43.10
61591;DHT22;57639;52.410;-1.966;2023-02-02T13:14:04;17.70;43.00
61591;DHT22;57639;52.410;-1.966;2023-02-02T13:17:17;17.70;43.00
61591;DHT22;57639;52.410;-1.966;2023-02-02T13:20:36;17.70;43.10
61591;DHT22;57639;52.410;-1.966;2023-02-02T13:23:49;17.70;43.10
61591;DHT22;57639;52.410;-1.966;2023-02-02T13:26:55;17.60;43.20
61591;DHT22;57639;52.410;-1.966;2023-02-02T13:30:11;17.60;43.20
61591;DHT22;57639;52.410;-1.966;2023-02-02T13:33:22;17.50;43.40
61591;DHT22;57639;52.410;-1.966;2023-02-02T13:36:34;17.40;43.50
61591;DHT22;57639;52.410;-1.966;2023-02-02T13:39:43;17.30;43.60
61591;DHT22;57639;52.410;-1.966;2023-02-02T13:42:55;17.20;43.90
61591;DHT22;57639;52.410;-1.966;2023-02-02T13:46:18;17.10;44.00
61591;DHT22;57639;52.410;-1.966;2023-02-02T13:49:27;17.10;44.00
61591;DHT22;57639;52.410;-1.966;2023-02-02T13:52:58;17.00;44.20
61591;DHT22;57639;52.410;-1.966;2023-02-02T13:56:29;16.90;44.40
61591;DHT22;57639;52.410;-1.966;2023-02-02T13:59:53;16.80;44.50
61591;DHT22;57639;52.410;-1.966;2023-02-02T14:03:22;16.80;44.60
61591;DHT22;57639;52.410;-1.966;2023-02-02T14:06:53;16.70;44.70
61591;DHT22;57639;52.410;-1.966;2023-02-02T14:10:05;16.70;44.80
61591;DHT22;57639;52.410;-1.966;2023-02-02T14:13:24;16.60;44.80
61591;DHT22;57639;52.410;-1.966;2023-02-02T14:16:53;16.60;45.00
61591;DHT22;57639;52.410;-1.966;2023-02-02T14:19:59;16.60;45.00
61591;DHT22;57639;52.410;-1.966;2023-02-02T14:26:47;16.50;45.10
61591;DHT22;57639;52.410;-1.966;2023-02-02T14:29:57;16.40;45.20
61591;DHT22;57639;52.410;-1.966;2023-02-02T14:33:24;16.40;45.20
61591;DHT22;57639;52.410;-1.966;2023-02-02T14:36:31;16.30;45.20
61591;DHT22;57639;52.410;-1.966;2023-02-02T14:39:50;16.30;45.40
61591;DHT22;57639;52.410;-1.966;2023-02-02T14:43:08;16.30;45.40
61591;DHT22;57639;52.410;-1.966;2023-02-02T14:46:37;16.30;45.50
61591;DHT22;57639;52.410;-1.966;2023-02-02T14:49:47;16.20;45.50
61591;DHT22;57639;52.410;-1.966;2023-02-02T14:52:59;16.10;45.40
61591;DHT22;57639;52.410;-1.966;2023-02-02T14:56:08;16.20;45.60
61591;DHT22;57639;52.410;-1.966;2023-02-02T14:59:21;16.10;45.50
61591;DHT22;57639;52.410;-1.966;2023-02-02T15:02:31;16.10;45.60
61591;DHT22;57639;52.410;-1.966;2023-02-02T15:05:43;16.10;45.80
61591;DHT22;57639;52.410;-1.966;2023-02-02T15:12:39;16.00;45.70
61591;DHT22;57639;52.410;-1.966;2023-02-02T15:15:47;16.00;45.80
61591;DHT22;57639;52.410;-1.966;2023-02-02T15:19:10;15.90;45.90
61591;DHT22;57639;52.410;-1.966;2023-02-02T15:22:34;15.90;45.90
61591;DHT22;57639;52.410;-1.966;2023-02-02T15:26:00;15.80;46.00
61591;DHT22;57639;52.410;-1.966;2023-02-02T15:29:16;15.80;46.10
61591;DHT22;57639;52.410;-1.966;2023-02-02T15:32:26;15.80;46.10
61591;DHT22;57639;52.410;-1.966;2023-02-02T15:35:32;15.80;46.10
61591;DHT22;57639;52.410;-1.966;2023-02-02T15:38:38;15.70;46.10
61591;DHT22;57639;52.410;-1.966;2023-02-02T15:41:46;15.70;46.20
61591;DHT22;57639;52.410;-1.966;2023-02-02T15:45:28;15.70;46.20
61591;DHT22;57639;52.410;-1.966;2023-02-02T15:48:35;15.70;46.30
61591;DHT22;57639;52.410;-1.966;2023-02-02T15:51:42;15.60;46.20
61591;DHT22;57639;52.410;-1.966;2023-02-02T15:54:51;15.60;46.20
61591;DHT22;57639;52.410;-1.966;2023-02-02T15:57:58;15.70;46.30
61591;DHT22;57639;52.410;-1.966;2023-02-02T16:01:12;15.60;46.40
61591;DHT22;57639;52.410;-1.966;2023-02-02T16:04:25;15.60;46.20
61591;DHT22;57639;52.410;-1.966;2023-02-02T16:07:33;15.60;46.30
61591;DHT22;57639;52.410;-1.966;2023-02-02T16:10:38;15.60;46.30
61591;DHT22;57639;52.410;-1.966;2023-02-02T16:13:56;15.50;46.40
61591;DHT22;57639;52.410;-1.966;2023-02-02T16:17:17;15.60;46.30
61591;DHT22;57639;52.410;-1.966;2023-02-02T16:20:30;15.50;46.40
61591;DHT22;57639;52.410;-1.966;2023-02-02T16:23:39;15.50;46.40
61591;DHT22;57639;52.410;-1.966;2023-02-02T16:26:45;15.50;46.50
61591;DHT22;57639;52.410;-1.966;2023-02-02T16:29:51;15.50;46.50
61591;DHT22;57639;52.410;-1.966;2023-02-02T16:33:25;15.50;46.40
61591;DHT22;57639;52.410;-1.966;2023-02-02T16:36:35;15.40;46.50
61591;DHT22;57639;52.410;-1.966;2023-02-02T16:39:41;15.40;46.50
61591;DHT22;57639;52.410;-1.966;2023-02-02T16:43:03;15.40;46.50
61591;DHT22;57639;52.410;-1.966;2023-02-02T16:46:10;15.40;46.60
61591;DHT22;57639;52.410;-1.966;2023-02-02T16:49:22;15.30;46.50
61591;DHT22;57639;52.410;-1.966;2023-02-02T16:52:28;15.40;46.50
61591;DHT22;57639;52.410;-1.966;2023-02-02T16:55:36;15.30;46.60
61591;DHT22;57639;52.410;-1.966;2023-02-02T16:58:43;15.40;46.60
61591;DHT22;57639;52.410;-1.966;2023-02-02T17:01:52;15.40;46.50
61591;DHT22;57639;52.410;-1.966;2023-02-02T17:04:59;15.30;46.50
61591;DHT22;57639;52.410;-1.966;2023-02-02T17:08:10;15.30;46.50
61591;DHT22;57639;52.410;-1.966;2023-02-02T17:11:22;15.30;46.50
61591;DHT22;57639;52.410;-1.966;2023-02-02T17:14:30;15.30;46.60
61591;DHT22;57639;52.410;-1.966;2023-02-02T17:17:36;15.30;46.70
61591;DHT22;57639;52.410;-1.966;2023-02-02T17:20:42;15.20;46.70
61591;DHT22;57639;52.410;-1.966;2023-02-02T17:23:51;15.20;46.70
61591;DHT22;57639;52.410;-1.966;2023-02-02T17:26:58;15.20;46.70
61591;DHT22;57639;52.410;-1.966;2023-02-02T17:30:04;15.20;46.70
61591;DHT22;57639;52.410;-1.966;2023-02-02T17:33:11;15.10;46.70
61591;DHT22;57639;52.410;-1.966;2023-02-02T17:36:22;15.10;46.60
61591;DHT22;57639;52.410;-1.966;2023-02-02T17:39:29;15.20;46.60
61591;DHT22;57639;52.410;-1.966;2023-02-02T17:42:35;15.10;46.60
61591;DHT22;57639;52.410;-1.966;2023-02-02T17:45:41;15.10;46.70
61591;DHT22;57639;52.410;-1.966;2023-02-02T17:48:45;15.10;46.60
61591;DHT22;57639;52.410;-1.966;2023-02-02T17:51:51;15.10;46.70
61591;DHT22;57639;52.410;-1.966;2023-02-02T17:55:00;15.10;46.70
61591;DHT22;57639;52.410;-1.966;2023-02-02T17:58:09;15.10;46.60
61591;DHT22;57639;52.410;-1.966;2023-02-02T18:01:16;15.10;46.60
61591;DHT22;57639;52.410;-1.966;2023-02-02T18:04:24;15.10;46.60
61591;DHT22;57639;52.410;-1.966;2023-02-02T18:07:33;15.10;46.70
61591;DHT22;57639;52.410;-1.966;2023-02-02T18:10:41;15.10;46.70
61591;DHT22;57639;52.410;-1.966;2023-02-02T18:13:47;15.10;46.60
61591;DHT22;57639;52.410;-1.966;2023-02-02T18:16:53;15.10;46.70
61591;DHT22;57639;52.410;-1.966;2023-02-02T18:20:02;15.30;46.70
61591;DHT22;57639;52.410;-1.966;2023-02-02T18:23:09;15.40;46.50
61591;DHT22;57639;52.410;-1.966;2023-02-02T18:26:20;15.60;46.20
61591;DHT22;57639;52.410;-1.966;2023-02-02T18:29:24;15.80;45.90
61591;DHT22;57639;52.410;-1.966;2023-02-02T18:32:37;16.10;45.50
61591;DHT22;57639;52.410;-1.966;2023-02-02T18:35:44;16.40;45.10
61591;DHT22;57639;52.410;-1.966;2023-02-02T18:38:51;16.60;44.70
61591;DHT22;57639;52.410;-1.966;2023-02-02T18:42:02;16.80;44.40
61591;DHT22;57639;52.410;-1.966;2023-02-02T18:45:09;17.00;44.10
61591;DHT22;57639;52.410;-1.966;2023-02-02T18:48:18;17.20;43.80
61591;DHT22;57639;52.410;-1.966;2023-02-02T18:51:24;17.30;43.60
61591;DHT22;57639;52.410;-1.966;2023-02-02T18:54:28;17.50;43.30
61591;DHT22;57639;52.410;-1.966;2023-02-02T18:57:41;17.60;43.20
61591;DHT22;57639;52.410;-1.966;2023-02-02T19:00:45;17.70;42.90
61591;DHT22;57639;52.410;-1.966;2023-02-02T19:03:55;17.80;42.80
61591;DHT22;57639;52.410;-1.966;2023-02-02T19:06:59;17.80;42.70
61591;DHT22;57639;52.410;-1.966;2023-02-02T19:10:22;17.90;42.60
61591;DHT22;57639;52.410;-1.966;2023-02-02T19:13:29;17.80;42.60
61591;DHT22;57639;52.410;-1.966;2023-02-02T19:16:38;17.80;42.60
61591;DHT22;57639;52.410;-1.966;2023-02-02T19:19:46;17.80;42.70
61591;DHT22;57639;52.410;-1.966;2023-02-02T19:23:03;17.80;42.80
61591;DHT22;57639;52.410;-1.966;2023-02-02T19:26:17;17.70;42.90
61591;DHT22;57639;52.410;-1.966;2023-02-02T19:29:33;17.60;43.00
61591;DHT22;57639;52.410;-1.966;2023-02-02T19:32:38;17.60;43.10
61591;DHT22;57639;52.410;-1.966;2023-02-02T19:35:48;17.60;43.30
61591;DHT22;57639;52.410;-1.966;2023-02-02T19:39:04;17.50;43.40
61591;DHT22;57639;52.410;-1.966;2023-02-02T19:42:24;17.40;43.50
61591;DHT22;57639;52.410;-1.966;2023-02-02T19:45:35;17.40;43.40
61591;DHT22;57639;52.410;-1.966;2023-02-02T19:48:41;17.40;43.40
61591;DHT22;57639;52.410;-1.966;2023-02-02T19:51:50;17.40;43.50
61591;DHT22;57639;52.410;-1.966;2023-02-02T19:54:57;17.40;43.50